sensor_id;sensor_type;location;lat;lon;timestamp;P1;durP1;ratioP1;P2;durP2;ratioP2
29030;SDS011;16122;50.236;11.734;2023-04-15T00:00:27;1.20;;;1.20;;
29030;SDS011;16122;50.236;11.734;2023-04-15T00:02:55;1.60;;;1.50;;
29030;SDS011;16122;50.236;11.734;2023-04-15T00:05:21;1.37;;;1.27;;
29030;SDS011;16122;50.236;11.734;2023-04-15T00:07:47;1.53;;;1.43;;
29030;SDS011;16122;50.236;11.734;2023-04-15T00:10:13;1.50;;;1.40;;
29030;SDS011;16122;50.236;11.734;2023-04-15T00:12:39;1.83;;;1.70;;
29030;SDS011;16122;50.236;11.734;2023-04-15T00:15:05;1.47;;;1.37;;
29030;SDS011;16122;50.236;11.734;2023-04-15T00:17:33;1.37;;;1.37;;
29030;SDS011;16122;50.236;11.734;2023-04-15T00:20:00;2.37;;;1.40;;
29030;SDS011;16122;50.236;11.734;2023-04-15T00:22:26;4.60;;;1.77;;
29030;SDS011;16122;50.236;11.734;2023-04-15T00:24:52;2.33;;;2.03;;
29030;SDS011;16122;50.236;11.734;2023-04-15T00:27:18;2.40;;;1.53;;
29030;SDS011;16122;50.236;11.734;2023-04-15T00:29:44;1.70;;;1.33;;
29030;SDS011;16122;50.236;11.734;2023-04-15T00:32:10;2.40;;;1.37;;
29030;SDS011;16122;50.236;11.734;2023-04-15T00:34:39;1.77;;;1.60;;
29030;SDS011;16122;50.236;11.734;2023-04-15T00:37:06;1.57;;;1.47;;
29030;SDS011;16122;50.236;11.734;2023-04-15T00:39:32;1.27;;;1.17;;
29030;SDS011;16122;50.236;11.734;2023-04-15T00:41:58;1.93;;;1.30;;
29030;SDS011;16122;50.236;11.734;2023-04-15T00:44:24;1.37;;;1.27;;
29030;SDS011;16122;50.236;11.734;2023-04-15T00:46:50;4.83;;;1.20;;
29030;SDS011;16122;50.236;11.734;2023-04-15T00:49:17;1.57;;;1.23;;
29030;SDS011;16122;50.236;11.734;2023-04-15T00:51:43;1.90;;;1.23;;
29030;SDS011;16122;50.236;11.734;2023-04-15T00:54:09;2.97;;;1.43;;
29030;SDS011;16122;50.236;11.734;2023-04-15T00:56:36;2.00;;;1.50;;
29030;SDS011;16122;50.236;11.734;2023-04-15T00:59:06;1.33;;;1.23;;
29030;SDS011;16122;50.236;11.734;2023-04-15T01:01:33;1.20;;;1.00;;
29030;SDS011;16122;50.236;11.734;2023-04-15T01:04:00;1.87;;;1.30;;
29030;SDS011;16122;50.236;11.734;2023-04-15T01:06:28;1.57;;;1.43;;
29030;SDS011;16122;50.236;11.734;2023-04-15T01:08:55;2.30;;;1.43;;
29030;SDS011;16122;50.236;11.734;2023-04-15T01:11:21;1.63;;;1.53;;
29030;SDS011;16122;50.236;11.734;2023-04-15T01:13:49;1.37;;;1.37;;
29030;SDS011;16122;50.236;11.734;2023-04-15T01:16:16;1.93;;;1.83;;
29030;SDS011;16122;50.236;11.734;2023-04-15T01:18:43;1.60;;;1.50;;
29030;SDS011;16122;50.236;11.734;2023-04-15T01:21:09;2.40;;;1.70;;
29030;SDS011;16122;50.236;11.734;2023-04-15T01:23:36;1.77;;;1.67;;
29030;SDS011;16122;50.236;11.734;2023-04-15T01:26:03;2.40;;;1.20;;
29030;SDS011;16122;50.236;11.734;2023-04-15T01:28:30;1.93;;;1.80;;
29030;SDS011;16122;50.236;11.734;2023-04-15T01:31:12;1.97;;;1.33;;
29030;SDS011;16122;50.236;11.734;2023-04-15T01:33:39;1.63;;;1.30;;
29030;SDS011;16122;50.236;11.734;2023-04-15T01:36:07;1.30;;;1.20;;
29030;SDS011;16122;50.236;11.734;2023-04-15T01:38:34;1.40;;;1.30;;
29030;SDS011;16122;50.236;11.734;2023-04-15T01:41:01;1.53;;;1.30;;
29030;SDS011;16122;50.236;11.734;2023-04-15T01:43:29;1.10;;;1.10;;
29030;SDS011;16122;50.236;11.734;2023-04-15T01:45:55;1.80;;;1.10;;
29030;SDS011;16122;50.236;11.734;2023-04-15T01:48:21;1.20;;;1.20;;
29030;SDS011;16122;50.236;11.734;2023-04-15T01:50:47;1.30;;;1.30;;
29030;SDS011;16122;50.236;11.734;2023-04-15T01:53:13;1.57;;;1.47;;
29030;SDS011;16122;50.236;11.734;2023-04-15T01:55:40;1.40;;;1.30;;
29030;SDS011;16122;50.236;11.734;2023-04-15T01:58:06;1.20;;;1.10;;
29030;SDS011;16122;50.236;11.734;2023-04-15T02:00:32;2.27;;;1.50;;
29030;SDS011;16122;50.236;11.734;2023-04-15T02:02:58;1.00;;;1.00;;
29030;SDS011;16122;50.236;11.734;2023-04-15T02:05:24;1.63;;;1.53;;
29030;SDS011;16122;50.236;11.734;2023-04-15T02:07:50;1.23;;;1.10;;
29030;SDS011;16122;50.236;11.734;2023-04-15T02:10:16;1.63;;;1.53;;
29030;SDS011;16122;50.236;11.734;2023-04-15T02:12:42;1.10;;;1.10;;
29030;SDS011;16122;50.236;11.734;2023-04-15T02:15:08;1.63;;;1.53;;
29030;SDS011;16122;50.236;11.734;2023-04-15T02:17:35;1.53;;;1.30;;
29030;SDS011;16122;50.236;11.734;2023-04-15T02:20:02;1.23;;;1.20;;
29030;SDS011;16122;50.236;11.734;2023-04-15T02:22:30;1.67;;;1.57;;
29030;SDS011;16122;50.236;11.734;2023-04-15T02:24:56;1.27;;;1.20;;
29030;SDS011;16122;50.236;11.734;2023-04-15T02:27:22;1.87;;;1.77;;
29030;SDS011;16122;50.236;11.734;2023-04-15T02:29:48;1.20;;;1.10;;
29030;SDS011;16122;50.236;11.734;2023-04-15T02:32:17;1.40;;;1.30;;
29030;SDS011;16122;50.236;11.734;2023-04-15T02:34:45;1.27;;;1.17;;
29030;SDS011;16122;50.236;11.734;2023-04-15T02:37:11;1.30;;;1.30;;
29030;SDS011;16122;50.236;11.734;2023-04-15T02:39:38;1.50;;;1.40;;
29030;SDS011;16122;50.236;11.734;2023-04-15T02:42:04;1.00;;;1.00;;
29030;SDS011;16122;50.236;11.734;2023-04-15T02:44:31;1.30;;;1.30;;
29030;SDS011;16122;50.236;11.734;2023-04-15T02:47:01;1.20;;;1.20;;
29030;SDS011;16122;50.236;11.734;2023-04-15T02:49:27;1.00;;;1.00;;
29030;SDS011;16122;50.236;11.734;2023-04-15T02:51:55;1.10;;;1.10;;
29030;SDS011;16122;50.236;11.734;2023-04-15T02:54:22;1.20;;;1.20;;
29030;SDS011;16122;50.236;11.734;2023-04-15T02:56:49;1.00;;;1.00;;
29030;SDS011;16122;50.236;11.734;2023-04-15T02:59:15;1.83;;;1.73;;
29030;SDS011;16122;50.236;11.734;2023-04-15T03:01:40;1.20;;;1.20;;
29030;SDS011;16122;50.236;11.734;2023-04-15T03:04:06;1.27;;;1.17;;
29030;SDS011;16122;50.236;11.734;2023-04-15T03:06:33;1.20;;;1.20;;
29030;SDS011;16122;50.236;11.734;2023-04-15T03:09:00;2.40;;;1.00;;
29030;SDS011;16122;50.236;11.734;2023-04-15T03:11:30;1.30;;;1.20;;
29030;SDS011;16122;50.236;11.734;2023-04-15T03:13:56;1.20;;;1.20;;
29030;SDS011;16122;50.236;11.734;2023-04-15T03:16:30;1.03;;;1.03;;
29030;SDS011;16122;50.236;11.734;2023-04-15T03:18:57;1.20;;;1.20;;
29030;SDS011;16122;50.236;11.734;2023-04-15T03:21:23;0.90;;;0.90;;
29030;SDS011;16122;50.236;11.734;2023-04-15T03:23:50;1.00;;;1.00;;
29030;SDS011;16122;50.236;11.734;2023-04-15T03:26:22;1.60;;;1.50;;
29030;SDS011;16122;50.236;11.734;2023-04-15T03:28:54;0.93;;;0.93;;
29030;SDS011;16122;50.236;11.734;2023-04-15T03:31:20;1.83;;;1.73;;
29030;SDS011;16122;50.236;11.734;2023-04-15T03:33:46;1.20;;;1.10;;
29030;SDS011;16122;50.236;11.734;2023-04-15T03:36:12;1.17;;;1.17;;
29030;SDS011;16122;50.236;11.734;2023-04-15T03:38:38;1.10;;;1.00;;
29030;SDS011;16122;50.236;11.734;2023-04-15T03:41:04;1.03;;;1.03;;
29030;SDS011;16122;50.236;11.734;2023-04-15T03:43:30;1.17;;;1.10;;
29030;SDS011;16122;50.236;11.734;2023-04-15T03:45:56;1.13;;;1.03;;
29030;SDS011;16122;50.236;11.734;2023-04-15T03:48:22;1.03;;;1.03;;
29030;SDS011;16122;50.236;11.734;2023-04-15T03:50:47;1.30;;;1.20;;
29030;SDS011;16122;50.236;11.734;2023-04-15T03:53:13;1.30;;;1.20;;
29030;SDS011;16122;50.236;11.734;2023-04-15T03:55:39;1.00;;;1.00;;
29030;SDS011;16122;50.236;11.734;2023-04-15T03:58:05;1.00;;;1.00;;
29030;SDS011;16122;50.236;11.734;2023-04-15T04:00:31;1.00;;;1.00;;
29030;SDS011;16122;50.236;11.734;2023-04-15T04:02:57;0.80;;;0.80;;
29030;SDS011;16122;50.236;11.734;2023-04-15T04:05:23;1.00;;;1.00;;
29030;SDS011;16122;50.236;11.734;2023-04-15T04:07:49;1.23;;;1.23;;
29030;SDS011;16122;50.236;11.734;2023-04-15T04:10:14;1.00;;;1.00;;
29030;SDS011;16122;50.236;11.734;2023-04-15T04:12:40;1.70;;;1.60;;
29030;SDS011;16122;50.236;11.734;2023-04-15T04:15:06;0.90;;;0.90;;
29030;SDS011;16122;50.236;11.734;2023-04-15T04:17:32;0.90;;;0.90;;
29030;SDS011;16122;50.236;11.734;2023-04-15T04:19:58;1.07;;;0.83;;
29030;SDS011;16122;50.236;11.734;2023-04-15T04:22:24;1.10;;;1.10;;
29030;SDS011;16122;50.236;11.734;2023-04-15T04:24:50;1.27;;;1.17;;
29030;SDS011;16122;50.236;11.734;2023-04-15T04:27:16;1.43;;;1.43;;
29030;SDS011;16122;50.236;11.734;2023-04-15T04:29:42;0.97;;;0.97;;
29030;SDS011;16122;50.236;11.734;2023-04-15T04:32:08;1.17;;;1.17;;
29030;SDS011;16122;50.236;11.734;2023-04-15T04:34:33;1.10;;;1.10;;
29030;SDS011;16122;50.236;11.734;2023-04-15T04:36:59;0.97;;;0.97;;
29030;SDS011;16122;50.236;11.734;2023-04-15T04:39:25;1.00;;;1.00;;
29030;SDS011;16122;50.236;11.734;2023-04-15T04:41:51;1.00;;;1.00;;
29030;SDS011;16122;50.236;11.734;2023-04-15T04:44:17;1.20;;;1.20;;
29030;SDS011;16122;50.236;11.734;2023-04-15T04:46:43;1.10;;;1.00;;
29030;SDS011;16122;50.236;11.734;2023-04-15T04:49:08;1.00;;;1.00;;
29030;SDS011;16122;50.236;11.734;2023-04-15T04:51:34;0.93;;;0.93;;
29030;SDS011;16122;50.236;11.734;2023-04-15T04:54:00;1.43;;;1.27;;
29030;SDS011;16122;50.236;11.734;2023-04-15T04:56:26;1.23;;;1.23;;
29030;SDS011;16122;50.236;11.734;2023-04-15T04:58:52;1.00;;;0.90;;
29030;SDS011;16122;50.236;11.734;2023-04-15T05:01:18;2.60;;;1.33;;
29030;SDS011;16122;50.236;11.734;2023-04-15T05:03:44;0.87;;;0.87;;
29030;SDS011;16122;50.236;11.734;2023-04-15T05:06:10;1.17;;;1.07;;
29030;SDS011;16122;50.236;11.734;2023-04-15T05:08:36;2.70;;;1.07;;
29030;SDS011;16122;50.236;11.734;2023-04-15T05:11:02;1.20;;;1.10;;
29030;SDS011;16122;50.236;11.734;2023-04-15T05:13:28;1.87;;;1.20;;
29030;SDS011;16122;50.236;11.734;2023-04-15T05:15:54;1.50;;;1.40;;
29030;SDS011;16122;50.236;11.734;2023-04-15T05:18:20;1.43;;;1.10;;
29030;SDS011;16122;50.236;11.734;2023-04-15T05:20:46;1.10;;;1.10;;
29030;SDS011;16122;50.236;11.734;2023-04-15T05:23:14;0.97;;;0.97;;
29030;SDS011;16122;50.236;11.734;2023-04-15T05:25:40;0.90;;;0.90;;
29030;SDS011;16122;50.236;11.734;2023-04-15T05:28:06;1.10;;;1.10;;
29030;SDS011;16122;50.236;11.734;2023-04-15T05:30:32;2.13;;;1.13;;
29030;SDS011;16122;50.236;11.734;2023-04-15T05:32:58;3.90;;;1.10;;
29030;SDS011;16122;50.236;11.734;2023-04-15T05:35:24;1.20;;;1.10;;
29030;SDS011;16122;50.236;11.734;2023-04-15T05:37:50;1.17;;;1.10;;
29030;SDS011;16122;50.236;11.734;2023-04-15T05:40:16;1.33;;;1.23;;
29030;SDS011;16122;50.236;11.734;2023-04-15T05:42:41;1.10;;;1.00;;
29030;SDS011;16122;50.236;11.734;2023-04-15T05:45:07;1.23;;;1.10;;
29030;SDS011;16122;50.236;11.734;2023-04-15T05:47:34;0.93;;;0.93;;
29030;SDS011;16122;50.236;11.734;2023-04-15T05:50:01;1.07;;;1.07;;
29030;SDS011;16122;50.236;11.734;2023-04-15T05:52:28;1.50;;;1.40;;
29030;SDS011;16122;50.236;11.734;2023-04-15T05:54:54;1.93;;;1.20;;
29030;SDS011;16122;50.236;11.734;2023-04-15T05:57:19;1.73;;;1.23;;
29030;SDS011;16122;50.236;11.734;2023-04-15T05:59:45;1.20;;;1.10;;
29030;SDS011;16122;50.236;11.734;2023-04-15T06:02:11;3.83;;;1.20;;
29030;SDS011;16122;50.236;11.734;2023-04-15T06:04:37;2.17;;;1.00;;
29030;SDS011;16122;50.236;11.734;2023-04-15T06:07:03;1.53;;;1.17;;
29030;SDS011;16122;50.236;11.734;2023-04-15T06:09:29;1.53;;;1.43;;
29030;SDS011;16122;50.236;11.734;2023-04-15T06:11:55;4.10;;;1.07;;
29030;SDS011;16122;50.236;11.734;2023-04-15T06:14:24;4.43;;;1.20;;
29030;SDS011;16122;50.236;11.734;2023-04-15T06:16:49;2.00;;;1.30;;
29030;SDS011;16122;50.236;11.734;2023-04-15T06:19:15;1.87;;;1.10;;
29030;SDS011;16122;50.236;11.734;2023-04-15T06:21:41;1.67;;;1.13;;
29030;SDS011;16122;50.236;11.734;2023-04-15T06:24:07;2.67;;;1.10;;
29030;SDS011;16122;50.236;11.734;2023-04-15T06:26:33;2.47;;;1.30;;
29030;SDS011;16122;50.236;11.734;2023-04-15T06:28:59;1.03;;;0.93;;
29030;SDS011;16122;50.236;11.734;2023-04-15T06:31:25;1.30;;;1.20;;
29030;SDS011;16122;50.236;11.734;2023-04-15T06:33:51;3.03;;;1.27;;
29030;SDS011;16122;50.236;11.734;2023-04-15T06:36:16;2.23;;;1.20;;
29030;SDS011;16122;50.236;11.734;2023-04-15T06:38:42;2.10;;;1.33;;
29030;SDS011;16122;50.236;11.734;2023-04-15T06:41:08;1.20;;;1.10;;
29030;SDS011;16122;50.236;11.734;2023-04-15T06:43:34;5.40;;;1.30;;
29030;SDS011;16122;50.236;11.734;2023-04-15T06:46:00;1.53;;;1.20;;
29030;SDS011;16122;50.236;11.734;2023-04-15T06:48:26;1.30;;;1.20;;
29030;SDS011;16122;50.236;11.734;2023-04-15T06:50:52;1.73;;;1.60;;
29030;SDS011;16122;50.236;11.734;2023-04-15T06:53:18;1.10;;;1.00;;
29030;SDS011;16122;50.236;11.734;2023-04-15T06:55:43;3.23;;;1.43;;
29030;SDS011;16122;50.236;11.734;2023-04-15T06:58:10;1.10;;;1.00;;
29030;SDS011;16122;50.236;11.734;2023-04-15T07:00:35;3.33;;;1.30;;
29030;SDS011;16122;50.236;11.734;2023-04-15T07:03:03;4.50;;;1.33;;
29030;SDS011;16122;50.236;11.734;2023-04-15T07:05:29;1.63;;;1.20;;
29030;SDS011;16122;50.236;11.734;2023-04-15T07:07:56;1.80;;;1.63;;
29030;SDS011;16122;50.236;11.734;2023-04-15T07:10:22;1.83;;;1.20;;
29030;SDS011;16122;50.236;11.734;2023-04-15T07:12:48;1.50;;;1.10;;
29030;SDS011;16122;50.236;11.734;2023-04-15T07:15:16;1.00;;;1.00;;
29030;SDS011;16122;50.236;11.734;2023-04-15T07:17:42;1.93;;;1.10;;
29030;SDS011;16122;50.236;11.734;2023-04-15T07:20:08;1.23;;;1.13;;
29030;SDS011;16122;50.236;11.734;2023-04-15T07:22:34;1.00;;;1.00;;
29030;SDS011;16122;50.236;11.734;2023-04-15T07:25:00;2.17;;;1.27;;
29030;SDS011;16122;50.236;11.734;2023-04-15T07:27:26;1.63;;;1.53;;
29030;SDS011;16122;50.236;11.734;2023-04-15T07:29:52;3.07;;;1.50;;
29030;SDS011;16122;50.236;11.734;2023-04-15T07:32:18;2.03;;;1.03;;
29030;SDS011;16122;50.236;11.734;2023-04-15T07:34:44;1.43;;;1.20;;
29030;SDS011;16122;50.236;11.734;2023-04-15T07:37:10;1.33;;;1.00;;
29030;SDS011;16122;50.236;11.734;2023-04-15T07:39:35;1.60;;;1.40;;
29030;SDS011;16122;50.236;11.734;2023-04-15T07:42:02;1.47;;;1.13;;
29030;SDS011;16122;50.236;11.734;2023-04-15T07:44:28;1.00;;;1.00;;
29030;SDS011;16122;50.236;11.734;2023-04-15T07:46:55;2.40;;;1.50;;
29030;SDS011;16122;50.236;11.734;2023-04-15T07:49:21;1.07;;;1.00;;
29030;SDS011;16122;50.236;11.734;2023-04-15T07:51:47;0.90;;;0.90;;
29030;SDS011;16122;50.236;11.734;2023-04-15T07:54:14;1.30;;;1.13;;
29030;SDS011;16122;50.236;11.734;2023-04-15T07:56:40;0.93;;;0.90;;
29030;SDS011;16122;50.236;11.734;2023-04-15T07:59:06;1.30;;;1.20;;
29030;SDS011;16122;50.236;11.734;2023-04-15T08:01:33;3.67;;;1.23;;
29030;SDS011;16122;50.236;11.734;2023-04-15T08:03:59;3.23;;;1.40;;
29030;SDS011;16122;50.236;11.734;2023-04-15T08:06:25;1.40;;;1.30;;
29030;SDS011;16122;50.236;11.734;2023-04-15T08:08:51;1.33;;;1.23;;
29030;SDS011;16122;50.236;11.734;2023-04-15T08:11:19;1.20;;;1.07;;
29030;SDS011;16122;50.236;11.734;2023-04-15T08:13:45;0.93;;;0.93;;
29030;SDS011;16122;50.236;11.734;2023-04-15T08:16:21;1.20;;;1.20;;
29030;SDS011;16122;50.236;11.734;2023-04-15T08:18:49;1.17;;;1.07;;
29030;SDS011;16122;50.236;11.734;2023-04-15T08:21:16;1.13;;;1.13;;
29030;SDS011;16122;50.236;11.734;2023-04-15T08:23:44;1.40;;;1.30;;
29030;SDS011;16122;50.236;11.734;2023-04-15T08:26:11;3.17;;;1.20;;
29030;SDS011;16122;50.236;11.734;2023-04-15T08:28:38;1.57;;;1.47;;
29030;SDS011;16122;50.236;11.734;2023-04-15T08:31:04;1.67;;;1.50;;
29030;SDS011;16122;50.236;11.734;2023-04-15T08:33:31;1.37;;;1.27;;
29030;SDS011;16122;50.236;11.734;2023-04-15T08:35:56;1.60;;;1.50;;
29030;SDS011;16122;50.236;11.734;2023-04-15T08:38:22;3.07;;;1.20;;
29030;SDS011;16122;50.236;11.734;2023-04-15T08:40:48;1.53;;;1.43;;
29030;SDS011;16122;50.236;11.734;2023-04-15T08:43:19;2.03;;;1.20;;
29030;SDS011;16122;50.236;11.734;2023-04-15T08:45:52;2.07;;;1.90;;
29030;SDS011;16122;50.236;11.734;2023-04-15T08:48:19;1.83;;;1.50;;
29030;SDS011;16122;50.236;11.734;2023-04-15T08:50:47;1.70;;;1.60;;
29030;SDS011;16122;50.236;11.734;2023-04-15T08:53:13;1.53;;;1.03;;
29030;SDS011;16122;50.236;11.734;2023-04-15T08:55:44;2.60;;;1.17;;
29030;SDS011;16122;50.236;11.734;2023-04-15T08:58:11;1.33;;;1.23;;
29030;SDS011;16122;50.236;11.734;2023-04-15T09:00:39;6.30;;;1.27;;
29030;SDS011;16122;50.236;11.734;2023-04-15T09:03:06;1.77;;;1.30;;
29030;SDS011;16122;50.236;11.734;2023-04-15T09:05:34;1.20;;;1.10;;
29030;SDS011;16122;50.236;11.734;2023-04-15T09:08:01;1.47;;;1.37;;
29030;SDS011;16122;50.236;11.734;2023-04-15T09:10:28;1.50;;;1.40;;
29030;SDS011;16122;50.236;11.734;2023-04-15T09:12:55;3.80;;;1.67;;
29030;SDS011;16122;50.236;11.734;2023-04-15T09:15:23;1.60;;;1.50;;
29030;SDS011;16122;50.236;11.734;2023-04-15T09:17:50;1.60;;;1.50;;
29030;SDS011;16122;50.236;11.734;2023-04-15T09:20:16;1.30;;;1.17;;
29030;SDS011;16122;50.236;11.734;2023-04-15T09:22:46;2.33;;;2.13;;
29030;SDS011;16122;50.236;11.734;2023-04-15T09:27:55;5.07;;;4.30;;
29030;SDS011;16122;50.236;11.734;2023-04-15T09:30:22;5.23;;;4.73;;
29030;SDS011;16122;50.236;11.734;2023-04-15T09:32:52;5.37;;;4.87;;
29030;SDS011;16122;50.236;11.734;2023-04-15T09:35:19;5.83;;;5.33;;
29030;SDS011;16122;50.236;11.734;2023-04-15T09:37:46;6.40;;;5.80;;
29030;SDS011;16122;50.236;11.734;2023-04-15T09:40:34;6.67;;;6.07;;
29030;SDS011;16122;50.236;11.734;2023-04-15T09:43:05;8.10;;;6.80;;
29030;SDS011;16122;50.236;11.734;2023-04-15T09:45:32;8.27;;;7.50;;
29030;SDS011;16122;50.236;11.734;2023-04-15T09:48:13;9.30;;;8.50;;
29030;SDS011;16122;50.236;11.734;2023-04-15T09:50:41;11.20;;;8.57;;
29030;SDS011;16122;50.236;11.734;2023-04-15T09:53:08;8.63;;;7.73;;
29030;SDS011;16122;50.236;11.734;2023-04-15T09:55:36;11.83;;;8.60;;
29030;SDS011;16122;50.236;11.734;2023-04-15T09:58:07;12.30;;;10.60;;
29030;SDS011;16122;50.236;11.734;2023-04-15T10:00:34;10.63;;;9.53;;
29030;SDS011;16122;50.236;11.734;2023-04-15T10:03:01;9.87;;;8.80;;
29030;SDS011;16122;50.236;11.734;2023-04-15T10:05:29;8.93;;;8.13;;
29030;SDS011;16122;50.236;11.734;2023-04-15T10:07:56;10.60;;;8.30;;
29030;SDS011;16122;50.236;11.734;2023-04-15T10:10:22;11.83;;;8.80;;
29030;SDS011;16122;50.236;11.734;2023-04-15T10:12:48;8.80;;;7.90;;
29030;SDS011;16122;50.236;11.734;2023-04-15T10:15:16;10.30;;;9.27;;
29030;SDS011;16122;50.236;11.734;2023-04-15T10:17:44;11.17;;;8.30;;
29030;SDS011;16122;50.236;11.734;2023-04-15T10:20:11;10.67;;;8.93;;
29030;SDS011;16122;50.236;11.734;2023-04-15T10:22:39;11.43;;;7.90;;
29030;SDS011;16122;50.236;11.734;2023-04-15T10:25:06;9.27;;;8.37;;
29030;SDS011;16122;50.236;11.734;2023-04-15T10:27:33;9.37;;;8.47;;
29030;SDS011;16122;50.236;11.734;2023-04-15T10:30:00;10.17;;;8.33;;
29030;SDS011;16122;50.236;11.734;2023-04-15T10:32:27;9.77;;;8.77;;
29030;SDS011;16122;50.236;11.734;2023-04-15T10:34:54;9.30;;;8.37;;
29030;SDS011;16122;50.236;11.734;2023-04-15T10:37:21;12.10;;;7.80;;
29030;SDS011;16122;50.236;11.734;2023-04-15T10:39:57;9.23;;;8.30;;
29030;SDS011;16122;50.236;11.734;2023-04-15T10:42:23;11.23;;;7.70;;
29030;SDS011;16122;50.236;11.734;2023-04-15T10:44:49;7.90;;;7.20;;
29030;SDS011;16122;50.236;11.734;2023-04-15T10:47:20;8.50;;;7.60;;
29030;SDS011;16122;50.236;11.734;2023-04-15T10:49:50;7.70;;;6.90;;
29030;SDS011;16122;50.236;11.734;2023-04-15T10:52:25;7.37;;;6.73;;
29030;SDS011;16122;50.236;11.734;2023-04-15T10:57:52;7.57;;;6.33;;
29030;SDS011;16122;50.236;11.734;2023-04-15T11:00:19;7.43;;;6.73;;
29030;SDS011;16122;50.236;11.734;2023-04-15T11:06:05;7.83;;;7.03;;
29030;SDS011;16122;50.236;11.734;2023-04-15T11:08:07;7.20;;;6.60;;
29030;SDS011;16122;50.236;11.734;2023-04-15T11:13:02;7.70;;;6.90;;
29030;SDS011;16122;50.236;11.734;2023-04-15T11:15:33;7.60;;;6.90;;
29030;SDS011;16122;50.236;11.734;2023-04-15T11:20:42;6.10;;;5.50;;
29030;SDS011;16122;50.236;11.734;2023-04-15T11:23:10;6.30;;;5.70;;
29030;SDS011;16122;50.236;11.734;2023-04-15T11:25:36;5.87;;;5.37;;
29030;SDS011;16122;50.236;11.734;2023-04-15T11:28:02;5.70;;;5.10;;
29030;SDS011;16122;50.236;11.734;2023-04-15T11:30:31;5.30;;;4.90;;
29030;SDS011;16122;50.236;11.734;2023-04-15T11:32:59;6.10;;;4.93;;
29030;SDS011;16122;50.236;11.734;2023-04-15T11:35:27;5.90;;;4.93;;
29030;SDS011;16122;50.236;11.734;2023-04-15T11:37:53;5.77;;;5.03;;
29030;SDS011;16122;50.236;11.734;2023-04-15T11:40:23;5.90;;;5.40;;
29030;SDS011;16122;50.236;11.734;2023-04-15T11:43:07;5.57;;;5.00;;
29030;SDS011;16122;50.236;11.734;2023-04-15T11:45:35;5.60;;;4.60;;
29030;SDS011;16122;50.236;11.734;2023-04-15T11:48:08;6.57;;;5.97;;
29030;SDS011;16122;50.236;11.734;2023-04-15T11:50:35;5.73;;;4.73;;
29030;SDS011;16122;50.236;11.734;2023-04-15T11:53:03;5.80;;;5.30;;
29030;SDS011;16122;50.236;11.734;2023-04-15T11:55:30;6.00;;;5.50;;
29030;SDS011;16122;50.236;11.734;2023-04-15T12:00:34;5.63;;;5.07;;
29030;SDS011;16122;50.236;11.734;2023-04-15T12:03:10;4.97;;;4.50;;
29030;SDS011;16122;50.236;11.734;2023-04-15T12:09:14;5.60;;;4.47;;
29030;SDS011;16122;50.236;11.734;2023-04-15T12:11:46;5.67;;;4.93;;
29030;SDS011;16122;50.236;11.734;2023-04-15T12:14:26;5.30;;;4.80;;
29030;SDS011;16122;50.236;11.734;2023-04-15T12:16:57;7.03;;;5.20;;
29030;SDS011;16122;50.236;11.734;2023-04-15T12:19:26;5.33;;;4.83;;
29030;SDS011;16122;50.236;11.734;2023-04-15T12:22:00;5.60;;;4.80;;
29030;SDS011;16122;50.236;11.734;2023-04-15T12:24:29;5.53;;;4.90;;
29030;SDS011;16122;50.236;11.734;2023-04-15T12:26:57;6.50;;;4.40;;
29030;SDS011;16122;50.236;11.734;2023-04-15T12:29:28;6.00;;;4.67;;
29030;SDS011;16122;50.236;11.734;2023-04-15T12:32:02;5.77;;;4.77;;
29030;SDS011;16122;50.236;11.734;2023-04-15T12:34:39;5.40;;;4.90;;
29030;SDS011;16122;50.236;11.734;2023-04-15T12:37:25;5.53;;;5.03;;
29030;SDS011;16122;50.236;11.734;2023-04-15T12:39:51;5.93;;;4.20;;
29030;SDS011;16122;50.236;11.734;2023-04-15T12:42:18;4.60;;;4.20;;
29030;SDS011;16122;50.236;11.734;2023-04-15T12:44:45;7.30;;;4.40;;
29030;SDS011;16122;50.236;11.734;2023-04-15T12:47:11;8.73;;;4.33;;
29030;SDS011;16122;50.236;11.734;2023-04-15T12:49:37;5.00;;;3.80;;
29030;SDS011;16122;50.236;11.734;2023-04-15T12:52:03;4.27;;;3.33;;
29030;SDS011;16122;50.236;11.734;2023-04-15T12:54:30;5.53;;;4.37;;
29030;SDS011;16122;50.236;11.734;2023-04-15T12:56:56;4.83;;;4.20;;
29030;SDS011;16122;50.236;11.734;2023-04-15T12:59:23;3.53;;;3.23;;
29030;SDS011;16122;50.236;11.734;2023-04-15T13:01:49;6.20;;;3.83;;
29030;SDS011;16122;50.236;11.734;2023-04-15T13:04:17;3.33;;;3.03;;
29030;SDS011;16122;50.236;11.734;2023-04-15T13:06:44;4.23;;;3.23;;
29030;SDS011;16122;50.236;11.734;2023-04-15T13:09:10;4.60;;;4.20;;
29030;SDS011;16122;50.236;11.734;2023-04-15T13:11:36;6.23;;;3.77;;
29030;SDS011;16122;50.236;11.734;2023-04-15T13:14:02;4.10;;;3.80;;
29030;SDS011;16122;50.236;11.734;2023-04-15T13:16:30;5.23;;;4.10;;
29030;SDS011;16122;50.236;11.734;2023-04-15T13:18:57;6.23;;;4.00;;
29030;SDS011;16122;50.236;11.734;2023-04-15T13:21:24;4.00;;;3.70;;
29030;SDS011;16122;50.236;11.734;2023-04-15T13:23:51;7.37;;;3.90;;
29030;SDS011;16122;50.236;11.734;2023-04-15T13:26:17;4.10;;;3.30;;
29030;SDS011;16122;50.236;11.734;2023-04-15T13:28:44;4.77;;;3.83;;
29030;SDS011;16122;50.236;11.734;2023-04-15T13:31:10;3.60;;;3.30;;
29030;SDS011;16122;50.236;11.734;2023-04-15T13:33:36;4.17;;;3.30;;
29030;SDS011;16122;50.236;11.734;2023-04-15T13:36:02;6.30;;;3.97;;
29030;SDS011;16122;50.236;11.734;2023-04-15T13:38:28;3.80;;;3.40;;
29030;SDS011;16122;50.236;11.734;2023-04-15T13:40:54;4.13;;;3.70;;
29030;SDS011;16122;50.236;11.734;2023-04-15T13:43:20;3.03;;;2.70;;
29030;SDS011;16122;50.236;11.734;2023-04-15T13:45:46;3.93;;;3.63;;
29030;SDS011;16122;50.236;11.734;2023-04-15T13:48:12;3.13;;;2.83;;
29030;SDS011;16122;50.236;11.734;2023-04-15T13:50:38;3.27;;;3.07;;
29030;SDS011;16122;50.236;11.734;2023-04-15T13:53:05;3.43;;;3.13;;
29030;SDS011;16122;50.236;11.734;2023-04-15T13:55:31;3.30;;;3.00;;
29030;SDS011;16122;50.236;11.734;2023-04-15T13:57:59;4.70;;;3.57;;
29030;SDS011;16122;50.236;11.734;2023-04-15T14:00:25;3.20;;;2.90;;
29030;SDS011;16122;50.236;11.734;2023-04-15T14:02:50;3.33;;;3.03;;
29030;SDS011;16122;50.236;11.734;2023-04-15T14:05:16;3.63;;;3.20;;
29030;SDS011;16122;50.236;11.734;2023-04-15T14:07:42;3.00;;;2.80;;
29030;SDS011;16122;50.236;11.734;2023-04-15T14:10:08;3.60;;;3.30;;
29030;SDS011;16122;50.236;11.734;2023-04-15T14:12:34;3.77;;;2.93;;
29030;SDS011;16122;50.236;11.734;2023-04-15T14:15:00;5.00;;;3.47;;
29030;SDS011;16122;50.236;11.734;2023-04-15T14:17:26;3.70;;;3.40;;
29030;SDS011;16122;50.236;11.734;2023-04-15T14:19:52;2.97;;;2.73;;
29030;SDS011;16122;50.236;11.734;2023-04-15T14:22:18;3.90;;;3.50;;
29030;SDS011;16122;50.236;11.734;2023-04-15T14:24:44;3.50;;;3.20;;
29030;SDS011;16122;50.236;11.734;2023-04-15T14:27:10;4.73;;;3.17;;
29030;SDS011;16122;50.236;11.734;2023-04-15T14:29:36;2.93;;;2.67;;
29030;SDS011;16122;50.236;11.734;2023-04-15T14:32:02;3.53;;;3.20;;
29030;SDS011;16122;50.236;11.734;2023-04-15T14:34:28;2.73;;;2.53;;
29030;SDS011;16122;50.236;11.734;2023-04-15T14:36:55;2.67;;;2.47;;
29030;SDS011;16122;50.236;11.734;2023-04-15T14:39:21;3.10;;;2.87;;
29030;SDS011;16122;50.236;11.734;2023-04-15T14:41:46;3.20;;;3.00;;
29030;SDS011;16122;50.236;11.734;2023-04-15T14:44:13;3.60;;;3.30;;
29030;SDS011;16122;50.236;11.734;2023-04-15T14:46:39;2.50;;;2.30;;
29030;SDS011;16122;50.236;11.734;2023-04-15T14:49:05;3.00;;;2.80;;
29030;SDS011;16122;50.236;11.734;2023-04-15T14:51:31;2.77;;;2.60;;